Time;durP1;ratioP1;P1;durP2;ratioP2;P2;SDS_P1;SDS_P2;PMS_P1;PMS_P2;Temp;Humidity;BMP_temperature;BMP_pressure;BME280_temperature;BME280_humidity;BME280_pressure;Samples;Min_cycle;Max_cycle;Signal;HPM_P1;HPM_P2
2023/01/04 00:01:35;;;;;;;1.33;0.70;;;17.90;48.00;;;;;;4976271;28;20159;-86
2023/01/04 00:04:01;;;;;;;1.50;0.80;;;17.90;48.00;;;;;;4942863;28;20161;-86
2023/01/04 00:06:27;;;;;;;1.02;0.70;;;17.90;48.10;;;;;;4926917;28;20292;-85
2023/01/04 00:08:53;;;;;;;1.48;0.80;;;17.90;48.20;;;;;;4942911;28;20183;-85
2023/01/04 00:11:21;;;;;;;1.52;0.68;;;17.80;48.00;;;;;;4942338;28;20663;-85
2023/01/04 00:13:48;;;;;;;1.40;0.85;;;17.80;48.10;;;;;;4942868;28;20500;-85
2023/01/04 00:16:17;;;;;;;1.27;0.70;;;17.80;48.20;;;;;;4927387;28;20185;-85
2023/01/04 00:18:42;;;;;;;0.65;0.65;;;17.80;48.20;;;;;;4926787;28;20160;-85
2023/01/04 00:21:11;;;;;;;2.45;0.82;;;17.80;48.20;;;;;;4926962;28;20180;-86
2023/01/04 00:23:37;;;;;;;2.60;0.80;;;17.80;48.30;;;;;;4927320;28;20169;-85
2023/01/04 00:26:09;;;;;;;1.23;0.80;;;17.80;48.20;;;;;;4926431;28;20223;-85
2023/01/04 00:28:37;;;;;;;1.67;0.63;;;17.70;48.20;;;;;;4926627;28;20248;-85
2023/01/04 00:31:05;;;;;;;1.13;0.70;;;17.80;48.30;;;;;;4958414;28;20613;-85
2023/01/04 00:33:30;;;;;;;1.92;0.80;;;17.80;48.30;;;;;;4942233;28;20157;-85
2023/01/04 00:36:02;;;;;;;1.83;0.90;;;17.70;48.20;;;;;;4942240;28;20172;-86
2023/01/04 00:38:27;;;;;;;1.90;0.90;;;17.80;48.20;;;;;;4942098;28;20168;-85
2023/01/04 00:40:57;;;;;;;0.90;0.70;;;17.80;48.40;;;;;;4926601;28;20160;-85
2023/01/04 00:43:23;;;;;;;1.48;0.90;;;17.70;48.30;;;;;;4942022;28;20164;-85
2023/01/04 00:45:51;;;;;;;1.33;0.63;;;17.70;48.30;;;;;;4941837;28;20690;-85
2023/01/04 00:48:16;;;;;;;1.40;0.90;;;17.70;48.30;;;;;;4941964;28;20199;-85
2023/01/04 00:50:44;;;;;;;2.80;0.85;;;17.70;48.30;;;;;;4942053;28;20193;-85
2023/01/04 00:53:10;;;;;;;1.17;0.80;;;17.70;48.40;;;;;;4942038;28;20219;-85
2023/01/04 00:55:35;;;;;;;1.10;0.75;;;17.70;48.30;;;;;;4941985;28;20639;-85
2023/01/04 00:58:01;;;;;;;2.17;0.70;;;17.70;48.30;;;;;;4941749;28;20157;-85
2023/01/04 01:00:28;;;;;;;2.38;0.65;;;17.70;48.50;;;;;;4925842;28;20256;-85
2023/01/04 01:02:53;;;;;;;2.42;1.00;;;17.70;48.60;;;;;;4926131;28;20165;-85
2023/01/04 01:05:19;;;;;;;0.85;0.70;;;17.60;48.50;;;;;;4941759;28;20208;-85
2023/01/04 01:07:45;;;;;;;1.95;0.80;;;17.60;48.60;;;;;;4925855;28;20164;-85
2023/01/04 01:10:12;;;;;;;1.63;0.80;;;17.60;48.70;;;;;;4942122;28;20503;-85
2023/01/04 01:12:40;;;;;;;1.20;0.70;;;17.60;48.70;;;;;;4925555;28;20261;-86
2023/01/04 01:15:06;;;;;;;1.23;0.77;;;17.60;48.70;;;;;;4941423;28;20260;-85
2023/01/04 01:17:32;;;;;;;1.52;0.70;;;17.60;48.60;;;;;;4941691;28;20168;-85
2023/01/04 01:20:00;;;;;;;1.25;0.70;;;17.60;48.60;;;;;;4957434;28;20615;-85
2023/01/04 01:22:26;;;;;;;1.05;0.80;;;17.60;48.70;;;;;;4925520;28;20523;-85
2023/01/04 01:24:51;;;;;;;1.17;0.70;;;17.60;48.60;;;;;;4941057;28;20164;-85
2023/01/04 01:27:18;;;;;;;0.75;0.57;;;17.60;48.70;;;;;;4941340;28;20161;-85
2023/01/04 01:29:46;;;;;;;1.52;0.98;;;17.60;48.70;;;;;;4941487;28;20157;-85
2023/01/04 01:32:11;;;;;;;1.33;0.85;;;17.60;48.80;;;;;;4941368;28;20157;-85
2023/01/04 01:34:37;;;;;;;1.40;0.60;;;17.60;48.80;;;;;;4941198;28;20248;-85
2023/01/04 01:37:03;;;;;;;1.67;0.70;;;17.60;48.80;;;;;;4941370;28;20157;-85
2023/01/04 01:39:29;;;;;;;1.88;0.95;;;17.50;48.90;;;;;;4941299;28;20244;-85
2023/01/04 01:41:55;;;;;;;1.05;0.68;;;17.50;48.90;;;;;;4925320;28;20595;-85
2023/01/04 01:44:57;;;;;;;1.70;1.05;;;17.50;48.80;;;;;;4957222;28;20240;-85
2023/01/04 01:47:27;;;;;;;1.80;0.70;;;17.50;48.90;;;;;;4943673;28;20207;-86
2023/01/04 01:49:54;;;;;;;1.60;0.98;;;17.50;48.90;;;;;;4925345;28;20594;-86
2023/01/04 01:52:23;;;;;;;1.90;0.75;;;17.50;48.80;;;;;;4942245;28;20227;-85
2023/01/04 01:54:52;;;;;;;0.82;0.70;;;17.50;48.90;;;;;;4941155;28;20719;-85
2023/01/04 01:57:20;;;;;;;1.35;0.70;;;17.50;48.90;;;;;;4925602;28;20181;-85
2023/01/04 01:59:47;;;;;;;1.85;0.70;;;17.50;49.00;;;;;;4941352;28;20157;-85
2023/01/04 02:02:13;;;;;;;1.10;0.60;;;17.50;48.90;;;;;;4925162;28;20177;-85
2023/01/04 02:04:42;;;;;;;0.93;0.60;;;17.50;49.00;;;;;;4925528;28;20173;-85
2023/01/04 02:07:08;;;;;;;1.08;0.65;;;17.50;49.10;;;;;;4941270;28;20532;-84
2023/01/04 02:09:33;;;;;;;1.73;0.98;;;17.50;49.00;;;;;;4925568;28;20631;-85
2023/01/04 02:11:59;;;;;;;2.33;0.88;;;17.50;49.10;;;;;;4940891;28;20172;-85
2023/01/04 02:14:26;;;;;;;0.93;0.60;;;17.40;49.10;;;;;;4925116;28;20178;-85
2023/01/04 02:17:13;;;;;;;0.70;0.60;;;17.50;49.10;;;;;;4957010;28;20244;-84
2023/01/04 02:20:17;;;;;;;3.13;0.93;;;17.40;49.10;;;;;;4928399;28;20304;-84
2023/01/04 02:23:11;;;;;;;1.80;1.00;;;17.50;49.10;;;;;;4974077;28;20161;-84
2023/01/04 02:25:50;;;;;;;1.33;0.80;;;17.50;49.10;;;;;;4941106;28;20197;-85
2023/01/04 02:28:47;;;;;;;1.45;0.70;;;17.50;49.10;;;;;;4941890;28;20265;-85
2023/01/04 02:31:23;;;;;;;1.23;0.60;;;17.40;49.00;;;;;;4943104;28;20165;-85
2023/01/04 02:33:57;;;;;;;2.50;0.80;;;17.40;49.10;;;;;;4941566;28;20546;-84
2023/01/04 02:36:55;;;;;;;1.45;0.80;;;17.50;49.10;;;;;;4960288;28;20156;-84
2023/01/04 02:39:48;;;;;;;1.05;0.80;;;17.40;49.10;;;;;;4944246;28;20218;-85
2023/01/04 02:44:51;;;;;;;0.60;0.60;;;17.40;49.10;;;;;;4951758;28;20508;-85
2023/01/04 02:45:21;;;;;;;0.95;0.60;;;17.40;49.10;;;;;;4963334;28;20198;-85
2023/01/04 02:50:34;;;;;;;0.60;0.60;;;17.40;49.10;;;;;;4947201;28;20153;-85
2023/01/04 02:53:07;;;;;;;1.77;0.77;;;17.40;49.10;;;;;;4929733;28;20243;-85
2023/01/04 02:55:46;;;;;;;0.70;0.70;;;17.40;49.20;;;;;;4945190;28;20192;-85
2023/01/04 02:58:37;;;;;;;1.25;0.80;;;17.40;49.20;;;;;;4945094;28;20160;-84
2023/01/04 03:07:32;;;;;;;0.95;0.70;;;17.40;49.10;;;;;;4977226;28;20173;-84
2023/01/04 03:10:12;;;;;;;1.48;0.68;;;17.40;49.10;;;;;;4944069;28;20224;-84
2023/01/04 03:12:41;;;;;;;0.82;0.63;;;17.40;49.20;;;;;;4945351;28;20196;-84
2023/01/04 03:15:25;;;;;;;0.70;0.70;;;17.30;49.10;;;;;;4960475;28;20180;-84
2023/01/04 03:17:57;;;;;;;1.98;0.90;;;17.40;49.10;;;;;;4945861;28;20169;-84
2023/01/04 03:20:28;;;;;;;1.85;0.90;;;17.40;49.10;;;;;;4943800;28;20208;-85
2023/01/04 03:36:44;;;;;;;1.90;0.80;;;17.30;49.10;;;;;;4961358;28;20157;-85
2023/01/04 03:50:46;;;;;;;1.25;0.73;;;17.30;49.20;;;;;;4948259;28;20494;-84
2023/01/04 03:53:11;;;;;;;1.10;0.65;;;17.30;49.10;;;;;;4943156;28;20243;-85
2023/01/04 03:55:40;;;;;;;0.85;0.60;;;17.30;49.20;;;;;;4958916;28;20191;-85
2023/01/04 03:58:06;;;;;;;0.70;0.68;;;17.30;49.20;;;;;;4927765;28;20176;-85
2023/01/04 04:00:32;;;;;;;1.05;0.80;;;17.30;49.20;;;;;;4943009;28;20157;-85
2023/01/04 04:03:11;;;;;;;2.35;0.90;;;17.30;49.20;;;;;;4927009;28;20187;-85
2023/01/04 04:08:29;;;;;;;1.67;0.77;;;17.30;49.20;;;;;;4947817;28;20603;-85
2023/01/04 04:13:46;;;;;;;0.80;0.63;;;17.30;49.20;;;;;;4947417;28;20153;-85
2023/01/04 04:16:13;;;;;;;0.82;0.63;;;17.30;49.30;;;;;;4942712;28;20499;-84
2023/01/04 04:18:39;;;;;;;1.48;0.90;;;17.30;49.20;;;;;;4942692;28;20627;-84
2023/01/04 04:21:05;;;;;;;1.25;0.65;;;17.40;49.30;;;;;;4958715;28;20251;-85
2023/01/04 04:23:33;;;;;;;1.17;0.70;;;17.40;49.20;;;;;;4926850;28;20276;-86
2023/01/04 04:25:59;;;;;;;0.70;0.70;;;17.30;49.20;;;;;;4942511;28;20588;-85
2023/01/04 04:28:24;;;;;;;0.73;0.60;;;17.30;49.20;;;;;;4975986;28;20161;-84
2023/01/04 04:30:50;;;;;;;1.13;0.80;;;17.30;49.20;;;;;;4942272;28;20168;-85
2023/01/04 04:33:16;;;;;;;0.80;0.60;;;17.20;49.20;;;;;;4942284;28;20169;-85
2023/01/04 04:35:42;;;;;;;2.10;0.90;;;17.30;49.80;;;;;;4942258;28;20168;-85
2023/01/04 04:38:07;;;;;;;0.90;0.80;;;17.30;49.20;;;;;;4942147;28;20167;-85
2023/01/04 04:43:12;;;;;;;0.85;0.63;;;17.30;49.20;;;;;;4945663;28;20157;-85
2023/01/04 04:45:41;;;;;;;0.73;0.57;;;17.30;49.20;;;;;;4926365;28;20254;-85
2023/01/04 04:48:06;;;;;;;0.82;0.60;;;17.30;49.20;;;;;;4941951;28;20157;-85
2023/01/04 04:50:33;;;;;;;1.00;0.70;;;17.30;49.20;;;;;;4926397;28;20216;-85
2023/01/04 04:52:59;;;;;;;1.02;0.70;;;17.30;49.20;;;;;;4925889;28;20204;-84
2023/01/04 04:55:24;;;;;;;0.63;0.52;;;17.20;49.20;;;;;;4926257;28;20171;-85
2023/01/04 04:57:50;;;;;;;0.70;0.60;;;17.30;49.20;;;;;;4926188;28;20173;-85
2023/01/04 05:00:16;;;;;;;1.33;0.90;;;17.20;49.20;;;;;;4925968;28;20204;-85
2023/01/04 05:02:42;;;;;;;0.90;0.63;;;17.30;49.20;;;;;;4926407;28;20231;-85
2023/01/04 05:05:09;;;;;;;1.20;0.65;;;17.20;49.20;;;;;;4957662;28;20609;-85
2023/01/04 05:07:35;;;;;;;1.25;0.73;;;17.20;49.20;;;;;;4926130;28;20212;-85
2023/01/04 05:10:01;;;;;;;0.55;0.40;;;17.20;49.20;;;;;;4926206;28;20169;-85
2023/01/04 05:15:13;;;;;;;0.73;0.70;;;17.20;49.20;;;;;;4959806;28;20215;-86
2023/01/04 05:17:38;;;;;;;0.80;0.70;;;17.20;49.20;;;;;;4957844;28;20165;-85
2023/01/04 05:20:05;;;;;;;1.15;0.63;;;17.20;49.20;;;;;;4941538;28;20361;-85
2023/01/04 05:22:33;;;;;;;0.70;0.60;;;17.20;49.20;;;;;;4957492;28;20161;-85
2023/01/04 05:24:59;;;;;;;0.73;0.73;;;17.30;49.20;;;;;;4941466;28;20296;-85
2023/01/04 05:27:24;;;;;;;0.65;0.60;;;17.20;49.20;;;;;;4941663;28;20164;-85
2023/01/04 05:32:33;;;;;;;1.30;0.90;;;17.20;49.10;;;;;;4945198;28;20153;-85
2023/01/04 05:35:00;;;;;;;1.45;0.70;;;17.20;49.20;;;;;;4925403;28;20172;-85
2023/01/04 05:37:27;;;;;;;1.55;0.63;;;17.20;49.20;;;;;;4941368;28;20644;-85
2023/01/04 05:39:53;;;;;;;0.98;0.70;;;17.20;49.20;;;;;;4957555;28;20247;-85
2023/01/04 05:42:26;;;;;;;1.95;0.82;;;17.20;49.20;;;;;;4973263;28;20196;-85
2023/01/04 05:44:53;;;;;;;1.48;0.80;;;17.20;49.20;;;;;;4942240;28;20619;-85
2023/01/04 05:47:21;;;;;;;1.65;0.88;;;17.20;49.20;;;;;;4941450;28;20185;-85
2023/01/04 05:49:49;;;;;;;1.20;0.70;;;17.10;49.20;;;;;;4941365;28;20254;-85
2023/01/04 05:52:19;;;;;;;0.85;0.77;;;17.20;49.20;;;;;;4941439;28;20157;-85
2023/01/04 05:54:45;;;;;;;0.80;0.60;;;17.20;49.20;;;;;;4947375;28;20258;-85
2023/01/04 05:57:11;;;;;;;1.58;0.60;;;17.10;49.20;;;;;;4948687;28;20161;-85
2023/01/04 05:59:38;;;;;;;0.80;0.70;;;17.20;49.20;;;;;;4948692;28;20231;-85
2023/01/04 06:02:03;;;;;;;1.05;0.70;;;17.10;49.10;;;;;;4933062;28;20177;-85
2023/01/04 06:04:32;;;;;;;1.08;0.63;;;17.20;49.20;;;;;;4947633;28;20635;-85
2023/01/04 06:06:58;;;;;;;1.67;0.70;;;17.20;49.20;;;;;;4957335;28;20200;-85
2023/01/04 06:09:26;;;;;;;1.52;0.88;;;17.20;49.20;;;;;;4942256;28;20172;-85
2023/01/04 06:11:53;;;;;;;0.65;0.63;;;17.20;49.20;;;;;;4945030;28;20236;-85
2023/01/04 06:14:21;;;;;;;0.68;0.60;;;17.20;49.20;;;;;;4928990;28;20176;-85
2023/01/04 06:16:47;;;;;;;0.70;0.40;;;17.10;49.20;;;;;;4944591;28;20183;-85
2023/01/04 06:19:16;;;;;;;0.50;0.50;;;17.20;49.20;;;;;;4945692;28;20177;-85
2023/01/04 06:21:42;;;;;;;0.98;0.70;;;17.20;49.20;;;;;;4944724;28;20177;-84
2023/01/04 06:24:09;;;;;;;0.77;0.65;;;17.20;49.20;;;;;;4944833;28;20187;-84
2023/01/04 06:26:35;;;;;;;0.68;0.60;;;17.20;49.00;;;;;;4960493;28;20180;-84
2023/01/04 06:29:01;;;;;;;1.38;0.70;;;17.20;49.00;;;;;;4960419;28;20228;-84
2023/01/04 06:31:26;;;;;;;0.93;0.70;;;17.20;49.10;;;;;;4945714;28;20212;-85
2023/01/04 06:33:52;;;;;;;1.58;0.80;;;17.20;49.10;;;;;;4960231;28;20165;-84
2023/01/04 06:36:18;;;;;;;1.08;0.60;;;17.20;49.20;;;;;;4944270;28;20184;-84
2023/01/04 06:38:47;;;;;;;1.05;0.70;;;17.20;49.20;;;;;;4976475;28;20199;-84
2023/01/04 06:41:13;;;;;;;0.98;0.73;;;17.20;49.20;;;;;;4976436;28;20566;-85
2023/01/04 06:43:39;;;;;;;0.80;0.80;;;17.20;49.20;;;;;;4960736;28;20312;-84
2023/01/04 06:46:05;;;;;;;0.60;0.50;;;17.10;49.10;;;;;;4943994;28;20667;-85
2023/01/04 06:48:31;;;;;;;0.63;0.60;;;17.10;49.20;;;;;;4943962;28;20260;-85
2023/01/04 06:50:58;;;;;;;0.90;0.60;;;17.10;49.10;;;;;;4960525;28;20253;-86
2023/01/04 06:53:23;;;;;;;1.25;0.80;;;17.10;49.10;;;;;;4943737;28;20348;-85
2023/01/04 06:55:49;;;;;;;1.75;0.80;;;17.10;49.20;;;;;;4943974;28;20723;-84
2023/01/04 06:58:15;;;;;;;1.25;0.52;;;17.10;49.20;;;;;;4944159;28;20168;-84
2023/01/04 07:00:41;;;;;;;1.67;0.80;;;17.10;49.20;;;;;;4960144;28;20219;-85
2023/01/04 07:03:06;;;;;;;1.52;0.70;;;17.10;49.10;;;;;;4976132;28;20628;-85
2023/01/04 07:05:33;;;;;;;1.15;0.70;;;17.10;49.10;;;;;;4960402;28;20525;-84
2023/01/04 07:08:00;;;;;;;2.20;0.70;;;17.20;49.10;;;;;;4976293;28;20637;-84
2023/01/04 07:10:26;;;;;;;0.90;0.70;;;17.10;49.10;;;;;;4959789;28;20164;-84
2023/01/04 07:12:52;;;;;;;1.05;0.82;;;17.10;49.10;;;;;;4943643;28;20168;-84
2023/01/04 07:15:17;;;;;;;0.88;0.57;;;17.10;49.10;;;;;;4959793;28;20169;-84
2023/01/04 07:17:45;;;;;;;0.80;0.70;;;17.10;49.00;;;;;;4975770;28;20168;-84
2023/01/04 07:20:11;;;;;;;0.88;0.60;;;17.10;49.10;;;;;;4975222;28;20164;-84
2023/01/04 07:22:38;;;;;;;0.73;0.73;;;17.10;49.10;;;;;;4958938;28;20160;-84
2023/01/04 07:25:04;;;;;;;1.17;0.98;;;17.10;49.10;;;;;;4943444;28;20176;-84
2023/01/04 07:27:29;;;;;;;1.17;0.68;;;17.10;49.00;;;;;;4943763;28;20165;-84
2023/01/04 07:29:55;;;;;;;0.52;0.50;;;17.10;48.80;;;;;;4959696;28;20525;-83
2023/01/04 07:32:23;;;;;;;1.27;0.65;;;17.20;48.60;;;;;;4959194;28;20683;-84
2023/01/04 07:34:48;;;;;;;0.80;0.57;;;17.30;48.20;;;;;;4959279;28;20189;-84
2023/01/04 07:37:16;;;;;;;0.85;0.55;;;17.30;48.50;;;;;;4943089;28;20207;-84
2023/01/04 07:39:43;;;;;;;0.73;0.60;;;17.30;48.40;;;;;;4959301;28;20252;-84
2023/01/04 07:42:09;;;;;;;0.70;0.70;;;17.30;48.20;;;;;;4975835;28;20175;-85
2023/01/04 07:44:35;;;;;;;0.85;0.65;;;17.50;48.00;;;;;;4959192;28;20215;-85
2023/01/04 07:47:01;;;;;;;1.30;0.80;;;17.50;47.70;;;;;;4959322;28;20196;-85
2023/01/04 07:49:27;;;;;;;0.55;0.50;;;17.50;48.00;;;;;;4959282;28;20212;-86
2023/01/04 07:51:52;;;;;;;0.70;0.70;;;17.50;47.80;;;;;;4943499;28;20297;-85
2023/01/04 07:54:18;;;;;;;1.13;0.60;;;17.50;47.80;;;;;;4959079;28;20224;-85
2023/01/04 07:56:44;;;;;;;0.90;0.60;;;17.50;47.80;;;;;;4960982;28;20188;-85
2023/01/04 07:59:10;;;;;;;0.63;0.60;;;17.50;47.70;;;;;;4977133;28;20247;-83
2023/01/04 08:01:37;;;;;;;0.60;0.50;;;17.50;47.70;;;;;;4963647;28;20165;-83
2023/01/04 08:04:11;;;;;;;0.70;0.60;;;17.50;47.50;;;;;;4948151;28;20172;-83
2023/01/04 08:06:37;;;;;;;0.75;0.65;;;17.60;47.20;;;;;;4946474;28;20195;-85
2023/01/04 08:09:03;;;;;;;1.15;0.80;;;17.60;47.60;;;;;;4962373;28;20167;-84
2023/01/04 08:11:28;;;;;;;0.93;0.70;;;17.60;47.40;;;;;;4946630;28;20254;-84
2023/01/04 08:13:54;;;;;;;0.65;0.60;;;17.60;47.10;;;;;;4946921;28;20199;-84
2023/01/04 08:16:27;;;;;;;0.90;0.70;;;17.60;47.10;;;;;;4962718;28;20589;-84
2023/01/04 08:18:54;;;;;;;0.80;0.70;;;17.70;46.60;;;;;;4962829;28;20207;-85
2023/01/04 08:21:20;;;;;;;1.52;0.70;;;17.80;46.80;;;;;;4946933;28;20550;-85
2023/01/04 08:23:46;;;;;;;0.85;0.70;;;17.60;47.40;;;;;;4946110;28;20226;-85
2023/01/04 08:26:13;;;;;;;0.95;0.70;;;17.70;46.90;;;;;;4962500;28;20200;-85
2023/01/04 08:28:39;;;;;;;0.98;0.68;;;17.70;47.20;;;;;;4961808;28;20162;-85
2023/01/04 08:31:08;;;;;;;0.70;0.70;;;17.70;47.10;;;;;;4945849;28;20168;-85
2023/01/04 08:33:35;;;;;;;0.93;0.70;;;17.80;46.80;;;;;;4961538;28;20195;-84
2023/01/04 08:36:12;;;;;;;5.30;1.10;;;17.70;46.60;;;;;;4961892;28;20171;-85
2023/01/04 08:38:38;;;;;;;4.38;0.88;;;17.70;46.90;;;;;;4946784;28;20187;-84
2023/01/04 08:41:05;;;;;;;1.98;0.73;;;17.70;47.10;;;;;;4995820;28;20686;-84
2023/01/04 08:43:31;;;;;;;4.15;0.73;;;17.80;46.90;;;;;;4961954;28;20171;-85
2023/01/04 08:45:57;;;;;;;1.63;1.00;;;17.70;47.00;;;;;;4945713;28;20196;-85
2023/01/04 08:48:23;;;;;;;2.22;0.80;;;17.70;46.90;;;;;;4961929;28;20176;-84
2023/01/04 08:50:48;;;;;;;0.70;0.70;;;17.70;47.20;;;;;;4945984;28;20594;-84
2023/01/04 08:53:14;;;;;;;2.28;1.02;;;17.70;46.70;;;;;;4961558;28;20574;-84
2023/01/04 08:55:40;;;;;;;3.30;0.70;;;17.70;46.60;;;;;;4977447;28;20203;-84
2023/01/04 08:58:06;;;;;;;2.40;0.80;;;17.80;46.70;;;;;;4945684;28;20175;-84
2023/01/04 09:00:32;;;;;;;3.17;1.00;;;17.80;46.90;;;;;;4945175;28;20183;-84
2023/01/04 09:02:58;;;;;;;4.82;0.93;;;17.80;46.70;;;;;;4961017;28;20199;-84
2023/01/04 09:05:25;;;;;;;0.98;0.65;;;17.80;46.80;;;;;;4961635;28;20231;-84
2023/01/04 09:07:51;;;;;;;1.05;0.63;;;17.80;46.70;;;;;;4977152;28;20180;-85
2023/01/04 09:10:17;;;;;;;2.13;0.65;;;17.90;46.90;;;;;;4961582;28;20630;-85
2023/01/04 09:12:44;;;;;;;8.23;0.73;;;17.80;46.90;;;;;;4962863;28;20164;-84
2023/01/04 09:15:10;;;;;;;1.83;0.90;;;17.80;47.30;;;;;;4977003;28;20160;-85
2023/01/04 09:17:36;;;;;;;2.15;0.70;;;17.80;47.40;;;;;;4961577;28;20187;-85
2023/01/04 09:20:01;;;;;;;2.40;0.65;;;17.70;47.00;;;;;;4977037;28;20191;-85
2023/01/04 09:22:29;;;;;;;1.25;0.70;;;17.80;47.40;;;;;;4960852;28;20256;-85
2023/01/04 09:24:56;;;;;;;3.90;0.85;;;17.80;47.00;;;;;;4977013;28;20183;-85
2023/01/04 09:27:21;;;;;;;3.40;0.80;;;17.80;46.50;;;;;;4944860;28;20203;-83
2023/01/04 09:29:47;;;;;;;1.45;0.57;;;17.90;46.60;;;;;;4961172;28;20156;-85
2023/01/04 09:32:13;;;;;;;0.75;0.68;;;17.90;46.50;;;;;;4946948;28;20167;-85
2023/01/04 09:34:38;;;;;;;1.67;0.90;;;17.80;46.70;;;;;;4962719;28;20644;-85
2023/01/04 09:37:04;;;;;;;1.75;0.77;;;17.90;46.80;;;;;;4947991;28;20250;-85
2023/01/04 09:39:30;;;;;;;3.08;0.90;;;17.80;46.90;;;;;;4964145;28;20160;-85
2023/01/04 09:41:58;;;;;;;1.05;0.70;;;17.90;46.80;;;;;;4948140;28;20637;-85
2023/01/04 09:44:48;;;;;;;5.53;1.10;;;17.90;46.80;;;;;;4962340;28;20623;-85
2023/01/04 09:47:25;;;;;;;3.60;1.02;;;17.90;46.90;;;;;;4952771;28;20206;-85
2023/01/04 09:49:55;;;;;;;1.92;0.70;;;17.90;46.90;;;;;;4948564;28;20206;-85
2023/01/04 09:52:23;;;;;;;3.83;0.88;;;17.80;46.70;;;;;;4963652;28;20148;-84
2023/01/04 09:54:56;;;;;;;3.13;1.00;;;17.80;46.70;;;;;;4947112;28;20250;-85
2023/01/04 09:57:25;;;;;;;4.13;0.82;;;17.90;46.70;;;;;;4963632;28;20160;-85
2023/01/04 09:59:55;;;;;;;7.03;0.90;;;17.90;46.40;;;;;;4947864;28;20627;-85
2023/01/04 10:02:24;;;;;;;7.43;1.00;;;17.90;46.60;;;;;;4947057;28;20176;-85
2023/01/04 10:04:51;;;;;;;6.57;1.40;;;17.90;46.70;;;;;;4963492;28;20161;-85
2023/01/04 10:07:28;;;;;;;6.45;1.15;;;17.90;46.80;;;;;;4963258;28;20201;-85
2023/01/04 10:09:54;;;;;;;8.23;1.23;;;17.90;46.80;;;;;;4948063;28;20171;-85
2023/01/04 10:12:31;;;;;;;7.75;0.93;;;17.90;46.70;;;;;;4947588;28;20218;-85
2023/01/04 10:15:09;;;;;;;8.43;1.35;;;17.90;46.70;;;;;;4948122;28;20187;-86
2023/01/04 10:17:55;;;;;;;10.70;1.08;;;17.90;46.40;;;;;;4964691;28;20251;-85
2023/01/04 10:20:53;;;;;;;6.93;1.08;;;17.90;47.20;;;;;;4965099;28;20180;-85
2023/01/04 10:23:43;;;;;;;12.60;0.90;;;18.00;47.70;;;;;;4951147;28;20223;-85
2023/01/04 10:26:12;;;;;;;4.93;0.98;;;18.00;46.70;;;;;;4965189;28;20294;-85
2023/01/04 10:29:02;;;;;;;4.50;1.00;;;17.90;46.90;;;;;;4948430;28;20232;-85
2023/01/04 10:31:49;;;;;;;6.65;0.80;;;17.90;47.10;;;;;;4981753;28;20159;-86
2023/01/04 10:34:29;;;;;;;2.47;0.90;;;17.90;47.00;;;;;;4967998;28;20542;-86
2023/01/04 10:37:00;;;;;;;2.97;0.70;;;17.90;46.90;;;;;;4961785;28;20707;-85
2023/01/04 10:39:29;;;;;;;3.38;0.88;;;17.90;46.70;;;;;;4945509;28;20180;-85
2023/01/04 10:42:03;;;;;;;2.60;0.88;;;17.90;46.40;;;;;;4961770;28;20187;-85
2023/01/04 10:44:38;;;;;;;1.65;1.00;;;17.90;46.90;;;;;;4949476;28;20203;-85
2023/01/04 10:47:14;;;;;;;4.65;1.10;;;17.90;46.60;;;;;;4946316;28;20200;-85
2023/01/04 10:49:57;;;;;;;3.70;0.75;;;17.90;46.80;;;;;;4964151;28;20156;-84
2023/01/04 10:52:30;;;;;;;3.50;0.75;;;17.90;46.50;;;;;;4968272;28;20513;-84
2023/01/04 10:55:03;;;;;;;1.95;0.95;;;17.90;46.50;;;;;;4965461;28;20286;-83
2023/01/04 10:57:36;;;;;;;2.75;0.70;;;18.00;47.00;;;;;;4968696;28;20247;-85
2023/01/04 11:00:07;;;;;;;1.30;0.80;;;18.00;46.60;;;;;;4966824;28;20176;-86
2023/01/04 11:02:48;;;;;;;2.40;1.00;;;18.00;46.70;;;;;;4950321;28;20222;-85
2023/01/04 11:05:19;;;;;;;2.78;0.70;;;18.00;46.70;;;;;;4967189;28;20286;-84
2023/01/04 11:07:58;;;;;;;0.95;0.68;;;17.90;46.50;;;;;;4966185;28;20152;-84
2023/01/04 11:10:30;;;;;;;2.53;0.80;;;18.00;46.40;;;;;;4980560;28;20243;-86
2023/01/04 11:12:56;;;;;;;1.05;0.60;;;18.00;46.70;;;;;;4948683;28;20168;-85
2023/01/04 11:15:22;;;;;;;1.63;0.73;;;18.00;46.30;;;;;;4948044;28;20175;-85
2023/01/04 11:17:48;;;;;;;3.75;0.55;;;18.00;46.70;;;;;;4963943;28;20152;-85
2023/01/04 11:20:15;;;;;;;4.05;0.70;;;18.00;46.50;;;;;;4953781;28;20239;-86
2023/01/04 11:22:54;;;;;;;1.83;0.70;;;17.90;46.40;;;;;;4928847;28;20264;-86
2023/01/04 11:25:22;;;;;;;1.27;0.60;;;18.00;46.70;;;;;;4978615;28;20165;-85
2023/01/04 11:27:55;;;;;;;0.93;0.50;;;18.00;46.20;;;;;;4960749;28;20182;-85
2023/01/04 11:30:22;;;;;;;1.02;0.60;;;18.00;46.90;;;;;;4929664;28;20667;-85
2023/01/04 11:32:59;;;;;;;1.02;0.50;;;18.00;46.40;;;;;;4946328;28;20153;-85
2023/01/04 11:35:36;;;;;;;2.55;0.85;;;18.00;46.10;;;;;;4961513;28;20157;-85
2023/01/04 11:38:11;;;;;;;0.93;0.73;;;18.00;46.60;;;;;;4952598;28;20611;-84
2023/01/04 11:40:37;;;;;;;3.67;0.80;;;18.00;46.40;;;;;;4960492;28;20196;-85
2023/01/04 11:43:17;;;;;;;3.75;0.70;;;18.00;46.00;;;;;;4976810;28;20165;-85
2023/01/04 11:45:56;;;;;;;1.80;0.70;;;18.10;46.30;;;;;;4960540;28;20203;-85
2023/01/04 11:48:32;;;;;;;4.38;1.00;;;18.10;46.90;;;;;;4960906;28;20165;-85
2023/01/04 11:50:58;;;;;;;1.48;0.60;;;18.00;46.70;;;;;;4960824;28;20164;-86
2023/01/04 11:53:35;;;;;;;1.98;0.50;;;18.00;47.10;;;;;;4976730;28;20220;-85
2023/01/04 11:56:16;;;;;;;1.10;0.65;;;18.00;46.90;;;;;;4978160;28;20172;-85
2023/01/04 11:58:43;;;;;;;0.75;0.60;;;18.00;46.00;;;;;;4978917;28;20177;-84
2023/01/04 12:01:23;;;;;;;2.10;0.60;;;18.10;46.20;;;;;;4959149;28;20258;-83
2023/01/04 12:03:49;;;;;;;0.50;0.40;;;18.10;46.40;;;;;;4999997;28;20160;-85
2023/01/04 12:06:26;;;;;;;3.55;0.60;;;18.10;45.50;;;;;;4984591;28;20593;-85
2023/01/04 12:08:52;;;;;;;2.78;0.95;;;18.10;46.40;;;;;;4970535;28;20159;-84
2023/01/04 12:11:25;;;;;;;1.05;0.68;;;18.10;46.30;;;;;;4968857;28;20212;-84
2023/01/04 12:13:51;;;;;;;0.90;0.70;;;18.10;46.50;;;;;;4964186;28;20171;-85
2023/01/04 12:16:42;;;;;;;2.00;0.55;;;18.10;45.80;;;;;;4967945;28;20160;-85
2023/01/04 12:19:13;;;;;;;2.75;0.70;;;18.10;46.40;;;;;;4967233;28;20172;-84
2023/01/04 12:21:40;;;;;;;0.80;0.63;;;18.10;46.50;;;;;;4967568;28;20185;-84
2023/01/04 12:24:06;;;;;;;0.73;0.47;;;18.10;46.40;;;;;;4980108;28;20271;-85
2023/01/04 12:26:32;;;;;;;1.65;0.60;;;18.10;46.30;;;;;;4979172;28;20246;-85
2023/01/04 12:29:29;;;;;;;0.65;0.40;;;18.00;46.90;;;;;;4962373;28;20257;-85
2023/01/04 12:32:34;;;;;;;1.38;0.70;;;18.00;46.90;;;;;;4978672;28;20226;-84
2023/01/04 12:35:00;;;;;;;1.00;0.60;;;18.00;46.40;;;;;;4970693;28;20175;-85
2023/01/04 12:37:47;;;;;;;2.40;0.50;;;18.10;46.00;;;;;;4962567;28;20169;-84
2023/01/04 12:40:44;;;;;;;0.68;0.50;;;18.00;46.70;;;;;;4947640;28;20195;-84
2023/01/04 12:43:25;;;;;;;1.02;0.70;;;18.00;46.40;;;;;;4978323;28;20164;-84
2023/01/04 12:49:27;;;;;;;0.85;0.50;;;18.00;46.60;;;;;;4994911;28;20665;-84
2023/01/04 12:52:40;;;;;;;0.80;0.50;;;18.00;46.40;;;;;;4995963;28;20607;-85
2023/01/04 12:55:46;;;;;;;0.57;0.50;;;17.90;46.70;;;;;;4971034;28;20239;-84
2023/01/04 12:58:43;;;;;;;0.40;0.40;;;18.00;46.70;;;;;;4980168;28;20207;-83
2023/01/04 13:01:22;;;;;;;0.63;0.55;;;18.00;46.50;;;;;;4997392;28;20182;-83
2023/01/04 13:03:48;;;;;;;0.52;0.50;;;18.00;46.70;;;;;;4964876;28;20159;-85
2023/01/04 13:06:14;;;;;;;0.70;0.60;;;18.00;47.10;;;;;;4947681;28;20192;-86
2023/01/04 13:08:40;;;;;;;0.80;0.60;;;18.00;47.00;;;;;;4946038;28;20171;-85
2023/01/04 13:11:20;;;;;;;1.85;0.70;;;17.90;46.20;;;;;;4965271;28;20170;-85
2023/01/04 13:13:55;;;;;;;2.10;0.73;;;18.00;46.40;;;;;;4967834;28;20244;-85
2023/01/04 13:16:53;;;;;;;1.90;0.60;;;18.10;46.10;;;;;;4984011;28;20272;-85
2023/01/04 13:19:21;;;;;;;0.60;0.50;;;18.00;46.80;;;;;;4959845;28;20193;-85
2023/01/04 13:21:47;;;;;;;0.57;0.50;;;18.00;47.10;;;;;;4946808;28;20192;-84
2023/01/04 13:24:34;;;;;;;0.80;0.60;;;18.00;46.80;;;;;;4949293;28;20168;-85
2023/01/04 13:27:11;;;;;;;1.38;0.70;;;17.90;46.60;;;;;;4926140;29;20212;-85
2023/01/04 13:29:39;;;;;;;0.60;0.45;;;17.90;46.50;;;;;;4927630;29;20192;-86
2023/01/04 13:32:23;;;;;;;1.52;0.52;;;18.00;46.20;;;;;;4916390;29;20182;-85
2023/01/04 13:34:55;;;;;;;0.90;0.60;;;18.00;46.60;;;;;;4902916;29;20195;-85
2023/01/04 13:37:29;;;;;;;0.63;0.55;;;18.00;46.20;;;;;;4902421;29;20187;-86
2023/01/04 13:40:20;;;;;;;1.70;0.57;;;18.00;45.80;;;;;;4867355;29;20183;-84
2023/01/04 13:42:47;;;;;;;0.85;0.30;;;18.10;47.10;;;;;;4882138;29;20183;-85
2023/01/04 13:45:28;;;;;;;0.98;0.57;;;18.10;46.20;;;;;;4858170;29;20287;-85
2023/01/04 13:48:02;;;;;;;0.77;0.50;;;18.00;46.90;;;;;;4860085;29;20189;-87
2023/01/04 13:51:05;;;;;;;0.60;0.50;;;18.00;47.00;;;;;;4829438;29;20209;-85
2023/01/04 13:53:57;;;;;;;6.63;0.63;;;18.00;45.80;;;;;;4819464;29;20298;-86
2023/01/04 13:56:46;;;;;;;1.13;0.50;;;18.10;46.10;;;;;;4800107;29;20202;-86
2023/01/04 13:59:31;;;;;;;0.63;0.47;;;18.10;46.20;;;;;;4812586;29;20545;-85